Time;durP1;ratioP1;P1;durP2;ratioP2;P2;SDS_P1;SDS_P2;PMS_P1;PMS_P2;Temp;Humidity;BMP_temperature;BMP_pressure;BME280_temperature;BME280_humidity;BME280_pressure;Samples;Min_cycle;Max_cycle;Signal;HPM_P1;HPM_P2
2022/05/18 00:01:53;;;;;;;8.82;6.72;;;17.30;99.90;;;;;;5095712;28;20046;-53
2022/05/18 00:04:19;;;;;;;8.55;7.20;;;17.30;99.90;;;;;;5098425;28;20497;-52
2022/05/18 00:06:45;;;;;;;13.02;7.47;;;17.30;99.90;;;;;;5104574;28;20139;-57
2022/05/18 00:09:16;;;;;;;9.90;7.93;;;17.20;99.90;;;;;;5105981;28;20047;-52
2022/05/18 00:11:42;;;;;;;8.88;7.97;;;17.20;99.90;;;;;;5107598;28;20051;-53
2022/05/18 00:14:08;;;;;;;14.98;7.93;;;17.20;99.90;;;;;;5107465;28;20051;-55
2022/05/18 00:16:43;;;;;;;11.20;7.97;;;17.20;99.90;;;;;;5106795;28;20150;-51
2022/05/18 00:19:17;;;;;;;9.50;7.78;;;17.10;99.90;;;;;;5107516;28;20051;-52
2022/05/18 00:21:44;;;;;;;10.00;8.48;;;17.10;99.90;;;;;;5088381;28;20126;-54
2022/05/18 00:24:10;;;;;;;12.27;7.80;;;17.10;99.90;;;;;;5103415;28;20089;-53
2022/05/18 00:26:36;;;;;;;11.80;8.05;;;17.10;99.90;;;;;;5092164;28;20568;-50
2022/05/18 00:29:02;;;;;;;9.50;8.13;;;17.00;99.90;;;;;;5102860;28;20059;-53
2022/05/18 00:31:27;;;;;;;11.93;8.23;;;17.00;99.90;;;;;;5104653;28;20112;-50
2022/05/18 00:33:53;;;;;;;14.57;8.25;;;16.90;99.90;;;;;;5096511;28;20044;-51
2022/05/18 00:36:20;;;;;;;9.70;8.48;;;16.90;99.90;;;;;;5089399;28;20058;-51
2022/05/18 00:38:46;;;;;;;10.95;7.90;;;16.90;99.90;;;;;;5084526;28;20059;-53
2022/05/18 00:41:12;;;;;;;10.52;8.15;;;16.80;99.90;;;;;;5094269;28;20055;-53
2022/05/18 00:43:43;;;;;;;10.57;8.95;;;16.70;99.90;;;;;;5100277;28;20055;-52
2022/05/18 00:46:14;;;;;;;12.43;8.90;;;16.70;99.90;;;;;;5088677;28;20071;-54
2022/05/18 00:48:41;;;;;;;11.23;9.20;;;16.70;99.90;;;;;;5082545;28;20066;-54
2022/05/18 00:51:41;;;;;;;12.90;9.60;;;16.70;99.90;;;;;;5102457;28;20048;-56
2022/05/18 00:54:17;;;;;;;12.55;9.38;;;16.60;99.90;;;;;;5007496;28;20061;-51
2022/05/18 00:56:46;;;;;;;13.20;9.20;;;16.60;99.90;;;;;;5001930;28;20053;-55
2022/05/18 00:59:17;;;;;;;11.50;8.75;;;16.50;99.90;;;;;;5006645;28;20085;-55
2022/05/18 01:01:48;;;;;;;12.07;9.13;;;16.40;99.90;;;;;;4999199;28;20045;-53
2022/05/18 01:04:15;;;;;;;10.98;9.65;;;16.50;99.90;;;;;;5003383;28;20053;-53
2022/05/18 01:07:05;;;;;;;13.25;10.02;;;16.40;99.90;;;;;;4990162;28;20065;-58
2022/05/18 01:09:39;;;;;;;10.57;9.25;;;16.40;99.90;;;;;;4980506;28;20057;-54
2022/05/18 01:12:07;;;;;;;14.10;10.07;;;16.40;99.90;;;;;;4965825;28;20069;-52
2022/05/18 01:15:03;;;;;;;11.40;10.20;;;16.40;99.90;;;;;;4981782;28;20064;-56
2022/05/18 01:17:35;;;;;;;13.95;9.65;;;16.30;99.90;;;;;;4966484;28;20263;-55
2022/05/18 01:20:05;;;;;;;13.73;10.18;;;16.30;99.90;;;;;;4967349;28;20469;-53
2022/05/18 01:22:42;;;;;;;11.68;9.68;;;16.30;99.90;;;;;;4982699;28;21409;-55
2022/05/18 01:25:46;;;;;;;12.95;9.93;;;16.30;99.90;;;;;;4983219;28;20079;-51
2022/05/18 01:28:17;;;;;;;13.07;9.70;;;16.30;99.90;;;;;;4984038;28;20046;-52
2022/05/18 01:30:46;;;;;;;12.27;10.00;;;16.20;99.90;;;;;;5013823;28;20461;-55
2022/05/18 01:33:13;;;;;;;12.55;9.38;;;16.20;99.90;;;;;;5054049;28;20041;-55
2022/05/18 01:35:44;;;;;;;12.23;10.65;;;16.20;99.90;;;;;;5062846;28;20209;-53
2022/05/18 01:38:13;;;;;;;12.50;10.48;;;16.10;99.90;;;;;;5062161;28;20429;-55
2022/05/18 01:40:58;;;;;;;13.20;10.30;;;16.10;99.90;;;;;;5061263;28;20053;-52
2022/05/18 01:43:47;;;;;;;10.55;9.43;;;16.10;99.90;;;;;;5051557;28;20526;-54
2022/05/18 01:46:16;;;;;;;13.65;10.05;;;16.10;99.90;;;;;;5073000;28;20086;-54
2022/05/18 01:48:52;;;;;;;11.45;10.02;;;16.00;99.90;;;;;;5057508;28;20098;-57
2022/05/18 01:51:33;;;;;;;12.40;9.60;;;16.00;99.90;;;;;;5061275;28;20048;-54
2022/05/18 01:53:59;;;;;;;10.93;9.63;;;15.90;99.90;;;;;;5061440;28;20056;-57
2022/05/18 01:56:28;;;;;;;14.70;9.80;;;15.90;99.90;;;;;;5062558;28;20411;-52
2022/05/18 01:58:54;;;;;;;11.57;9.95;;;15.90;99.90;;;;;;5060629;28;20056;-55
2022/05/18 02:01:20;;;;;;;11.55;9.38;;;15.80;99.90;;;;;;5045253;28;20056;-51
2022/05/18 02:03:47;;;;;;;12.98;10.07;;;15.80;99.90;;;;;;5057073;28;20109;-55
2022/05/18 02:06:13;;;;;;;16.50;10.15;;;15.80;99.90;;;;;;5077047;28;20615;-56
2022/05/18 02:08:41;;;;;;;10.95;9.85;;;15.70;99.90;;;;;;5101146;28;20469;-57
2022/05/18 02:11:15;;;;;;;11.25;10.05;;;15.70;99.90;;;;;;5101061;28;20060;-51
2022/05/18 02:13:41;;;;;;;11.23;9.73;;;15.70;99.90;;;;;;5095988;28;20549;-55
2022/05/18 02:16:07;;;;;;;12.73;11.15;;;15.70;99.90;;;;;;5086253;28;20163;-53
2022/05/18 02:18:32;;;;;;;13.07;11.55;;;15.70;99.90;;;;;;5096341;28;20047;-56
2022/05/18 02:21:02;;;;;;;12.05;10.93;;;15.60;99.90;;;;;;5105040;28;20087;-57
2022/05/18 02:23:28;;;;;;;15.18;10.48;;;15.60;99.90;;;;;;5088329;28;20724;-52
2022/05/18 02:25:54;;;;;;;16.15;10.73;;;15.60;99.90;;;;;;5087294;28;20539;-54
2022/05/18 02:28:19;;;;;;;14.40;11.38;;;15.50;99.90;;;;;;5084128;28;20043;-54
2022/05/18 02:30:48;;;;;;;13.02;10.90;;;15.50;99.90;;;;;;5097009;28;20109;-55
2022/05/18 02:33:15;;;;;;;13.13;9.77;;;15.50;99.90;;;;;;5102619;28;20386;-55
2022/05/18 02:35:41;;;;;;;11.82;10.45;;;15.40;99.90;;;;;;5101873;28;20417;-56
2022/05/18 02:38:09;;;;;;;14.43;11.13;;;15.40;99.90;;;;;;5105628;28;20128;-50
2022/05/18 02:40:35;;;;;;;13.63;10.60;;;15.40;99.90;;;;;;5104681;28;20158;-54
2022/05/18 02:43:01;;;;;;;13.60;11.00;;;15.40;99.90;;;;;;5105665;28;20183;-57
2022/05/18 02:45:27;;;;;;;12.40;10.77;;;15.30;99.90;;;;;;5086562;28;20553;-56
2022/05/18 02:47:53;;;;;;;13.25;11.02;;;15.30;99.90;;;;;;5108986;28;20055;-54
2022/05/18 02:50:19;;;;;;;13.23;11.07;;;15.30;99.90;;;;;;5092194;28;20417;-55
2022/05/18 02:52:45;;;;;;;16.67;11.40;;;15.30;99.90;;;;;;5099565;28;20051;-52
2022/05/18 02:57:56;;;;;;;14.23;10.60;;;15.20;99.90;;;;;;5105163;28;20052;-53
2022/05/18 03:00:22;;;;;;;11.55;10.55;;;15.10;99.90;;;;;;5103247;28;20093;-57
2022/05/18 03:02:47;;;;;;;11.35;10.25;;;15.10;99.90;;;;;;5084406;28;20411;-47
2022/05/18 03:05:13;;;;;;;14.20;11.60;;;15.10;99.90;;;;;;5083858;28;20160;-56
2022/05/18 03:07:40;;;;;;;14.65;11.95;;;15.00;99.90;;;;;;5083682;28;20087;-52
2022/05/18 03:10:06;;;;;;;11.52;10.32;;;15.00;99.90;;;;;;5090886;28;20410;-52
2022/05/18 03:12:32;;;;;;;14.15;12.60;;;14.90;99.90;;;;;;5097416;28;20054;-58
2022/05/18 03:14:57;;;;;;;13.90;10.80;;;14.90;99.90;;;;;;5104065;28;20039;-50
2022/05/18 03:17:23;;;;;;;14.27;10.85;;;14.90;99.90;;;;;;5104589;28;20549;-56
2022/05/18 03:19:49;;;;;;;11.30;10.25;;;14.80;99.90;;;;;;5099115;28;20047;-52
2022/05/18 03:25:05;;;;;;;14.45;11.48;;;14.80;99.90;;;;;;5101181;28;20147;-55
2022/05/18 03:27:31;;;;;;;13.95;11.60;;;14.80;99.90;;;;;;5103781;28;20051;-56
2022/05/18 03:29:57;;;;;;;12.57;9.77;;;14.80;99.90;;;;;;5098395;28;20044;-48
2022/05/18 03:32:23;;;;;;;15.43;10.95;;;14.80;99.90;;;;;;5097113;28;20049;-52
2022/05/18 03:34:49;;;;;;;14.55;10.48;;;14.80;99.90;;;;;;5103672;28;20546;-50
2022/05/18 03:37:17;;;;;;;13.65;10.88;;;14.80;99.90;;;;;;5103686;28;20057;-52
2022/05/18 03:39:43;;;;;;;11.90;10.80;;;14.70;99.90;;;;;;5104090;28;20163;-54
2022/05/18 03:42:09;;;;;;;12.85;11.57;;;14.80;99.90;;;;;;5102343;28;20512;-52
2022/05/18 03:44:35;;;;;;;12.57;11.13;;;14.70;99.90;;;;;;5099991;28;20047;-55
2022/05/18 03:47:00;;;;;;;14.25;11.88;;;14.70;99.90;;;;;;5085837;28;20051;-53
2022/05/18 03:49:26;;;;;;;14.98;11.43;;;14.70;99.90;;;;;;5103812;28;20074;-53
2022/05/18 03:51:55;;;;;;;13.00;11.43;;;14.70;99.90;;;;;;5082838;28;20501;-55
2022/05/18 03:54:21;;;;;;;12.82;11.02;;;14.80;99.90;;;;;;5101366;28;20047;-52
2022/05/18 03:56:46;;;;;;;14.80;11.35;;;14.80;99.90;;;;;;5084788;28;20066;-56
2022/05/18 03:59:12;;;;;;;13.40;11.68;;;14.90;99.90;;;;;;5102856;28;20057;-54
2022/05/18 04:01:41;;;;;;;15.88;11.05;;;15.00;99.90;;;;;;5085044;28;20921;-55
2022/05/18 04:04:08;;;;;;;13.98;12.32;;;15.00;99.90;;;;;;5105726;28;20497;-54
2022/05/18 04:06:34;;;;;;;13.02;11.73;;;15.10;99.90;;;;;;5104115;28;20126;-46
2022/05/18 04:09:00;;;;;;;13.27;11.50;;;15.20;99.90;;;;;;5085422;28;20051;-58
2022/05/18 04:11:26;;;;;;;15.65;12.10;;;15.30;99.90;;;;;;5095624;28;20043;-54
2022/05/18 04:13:52;;;;;;;13.27;11.73;;;15.40;99.90;;;;;;5083893;28;20074;-52
2022/05/18 04:16:18;;;;;;;14.95;12.55;;;15.50;99.90;;;;;;5093804;28;20208;-54
2022/05/18 04:18:43;;;;;;;12.75;11.55;;;15.50;99.90;;;;;;5083436;28;20146;-53
2022/05/18 04:21:12;;;;;;;14.20;12.80;;;15.60;99.90;;;;;;5094512;28;20053;-54
2022/05/18 04:23:40;;;;;;;12.70;11.50;;;15.70;99.90;;;;;;5102449;28;20046;-52
2022/05/18 04:26:07;;;;;;;13.77;12.40;;;16.00;99.90;;;;;;5102246;28;20539;-52
2022/05/18 04:28:35;;;;;;;14.55;10.88;;;16.70;99.90;;;;;;5080217;28;20098;-55
2022/05/18 04:31:02;;;;;;;13.82;10.90;;;17.60;99.90;;;;;;5094189;28;20530;-55
2022/05/18 04:33:28;;;;;;;12.00;10.43;;;18.60;99.90;;;;;;5102218;28;20518;-50
2022/05/18 04:35:53;;;;;;;12.85;11.15;;;19.50;99.90;;;;;;5099338;28;20139;-51
2022/05/18 04:38:21;;;;;;;14.32;10.20;;;20.40;99.90;;;;;;5100719;28;20055;-55
2022/05/18 04:40:47;;;;;;;13.95;11.25;;;21.20;99.90;;;;;;5101914;28;20589;-54
2022/05/18 04:43:16;;;;;;;13.85;10.93;;;21.70;99.90;;;;;;5102797;28;20544;-54
2022/05/18 04:45:44;;;;;;;11.90;10.77;;;22.30;99.90;;;;;;5102426;28;20104;-58
2022/05/18 04:48:17;;;;;;;12.18;10.10;;;23.00;99.90;;;;;;5083935;28;20116;-52
2022/05/18 04:50:44;;;;;;;10.70;9.60;;;23.40;99.90;;;;;;5083522;28;20130;-57
2022/05/18 04:53:10;;;;;;;12.90;10.73;;;23.90;99.90;;;;;;5102299;28;20054;-54
2022/05/18 04:55:36;;;;;;;12.23;10.82;;;24.10;99.90;;;;;;5102455;28;20035;-55
2022/05/18 04:58:04;;;;;;;13.23;11.13;;;23.90;99.90;;;;;;5103030;28;20042;-56
2022/05/18 05:00:30;;;;;;;12.00;10.52;;;23.50;99.90;;;;;;5102063;28;20052;-56
2022/05/18 05:02:59;;;;;;;14.10;10.90;;;23.60;99.90;;;;;;5084124;28;20043;-54
2022/05/18 05:05:26;;;;;;;11.57;9.48;;;24.10;99.90;;;;;;5099477;28;20099;-55
2022/05/18 05:07:53;;;;;;;14.52;10.90;;;24.60;99.90;;;;;;5102146;28;20771;-56
2022/05/18 05:10:19;;;;;;;11.07;9.63;;;25.00;99.90;;;;;;5094999;28;20051;-54
2022/05/18 05:12:45;;;;;;;11.40;10.07;;;25.50;99.90;;;;;;5093547;28;20125;-55
2022/05/18 05:15:12;;;;;;;11.05;9.95;;;25.80;99.90;;;;;;5100314;28;20436;-58
2022/05/18 05:17:38;;;;;;;11.30;10.15;;;26.20;99.90;;;;;;5103232;28;20079;-55
2022/05/18 05:20:04;;;;;;;11.35;10.07;;;26.60;99.90;;;;;;5091223;28;20166;-54
2022/05/18 05:22:31;;;;;;;10.88;9.85;;;26.90;99.90;;;;;;5105736;28;20042;-55
2022/05/18 05:24:57;;;;;;;12.38;11.07;;;27.40;99.90;;;;;;5099815;28;20130;-50
2022/05/18 05:27:23;;;;;;;12.15;11.02;;;27.00;99.70;;;;;;5094720;28;20146;-54
2022/05/18 05:29:52;;;;;;;14.27;10.60;;;26.00;99.90;;;;;;5097937;28;20044;-53
2022/05/18 05:32:18;;;;;;;13.02;11.02;;;25.70;99.90;;;;;;5082895;28;20043;-54
2022/05/18 05:34:44;;;;;;;12.25;10.95;;;25.70;99.90;;;;;;5089212;28;20055;-52
2022/05/18 05:37:10;;;;;;;13.60;11.30;;;25.80;99.90;;;;;;5103124;28;20109;-54
2022/05/18 05:39:36;;;;;;;11.90;10.73;;;26.20;99.90;;;;;;5087371;28;20044;-49
2022/05/18 05:42:02;;;;;;;12.77;11.45;;;26.40;99.90;;;;;;5082684;28;20060;-56
2022/05/18 05:44:28;;;;;;;12.35;11.07;;;27.00;99.90;;;;;;5081016;28;20083;-54
2022/05/18 05:46:56;;;;;;;12.65;11.32;;;27.40;98.80;;;;;;5095058;28;20148;-52
2022/05/18 05:49:22;;;;;;;12.38;11.18;;;27.80;98.80;;;;;;5107058;28;20055;-55
2022/05/18 05:51:50;;;;;;;14.38;11.80;;;28.30;98.80;;;;;;5106338;28;20044;-56
2022/05/18 05:54:17;;;;;;;12.38;11.35;;;28.60;98.10;;;;;;5106652;28;20043;-50
2022/05/18 05:56:43;;;;;;;13.10;11.90;;;28.30;97.70;;;;;;5089153;28;20056;-55
2022/05/18 05:59:09;;;;;;;13.85;12.43;;;27.50;98.00;;;;;;5106886;28;20043;-53
2022/05/18 06:01:34;;;;;;;14.77;13.35;;;26.10;98.90;;;;;;5086331;28;20513;-55
2022/05/18 06:04:00;;;;;;;14.00;12.60;;;25.90;99.90;;;;;;5105640;28;20051;-56
2022/05/18 06:06:26;;;;;;;14.25;12.23;;;26.80;99.90;;;;;;5103123;28;20236;-56
2022/05/18 06:08:52;;;;;;;13.60;12.30;;;27.70;98.90;;;;;;5104669;28;20103;-55
2022/05/18 06:11:19;;;;;;;13.88;12.57;;;27.80;98.30;;;;;;5084647;28;20642;-52
2022/05/18 06:13:45;;;;;;;16.42;12.85;;;27.10;98.30;;;;;;5101931;28;20048;-53
2022/05/18 06:16:10;;;;;;;15.00;13.02;;;26.30;99.20;;;;;;5103140;28;20118;-48
2022/05/18 06:18:38;;;;;;;14.68;13.18;;;25.60;99.90;;;;;;5100490;28;20058;-50
2022/05/18 06:21:05;;;;;;;17.02;14.20;;;24.80;99.90;;;;;;5101117;28;20421;-55
2022/05/18 06:23:30;;;;;;;14.93;13.25;;;24.30;99.90;;;;;;5083298;28;20100;-54
2022/05/18 06:26:05;;;;;;;14.15;12.70;;;24.40;99.90;;;;;;5085924;28;20258;-53
2022/05/18 06:28:31;;;;;;;15.05;13.13;;;25.90;99.90;;;;;;5082095;28;20043;-56
2022/05/18 06:30:57;;;;;;;14.52;13.15;;;27.50;99.90;;;;;;5103955;28;20047;-52
2022/05/18 06:33:23;;;;;;;15.32;12.75;;;28.80;99.00;;;;;;5086086;28;20048;-55
2022/05/18 06:35:51;;;;;;;13.52;12.30;;;29.40;97.90;;;;;;5096618;28;20039;-56
2022/05/18 06:38:18;;;;;;;12.93;11.68;;;30.20;97.30;;;;;;5072548;28;20059;-55
2022/05/18 06:43:38;;;;;;;13.48;11.88;;;31.00;95.90;;;;;;5100010;28;20058;-55
2022/05/18 06:46:13;;;;;;;13.15;11.60;;;31.30;94.50;;;;;;5108903;28;20074;-55
2022/05/18 06:48:42;;;;;;;12.82;11.35;;;31.00;93.90;;;;;;5092396;28;20054;-57
2022/05/18 06:51:08;;;;;;;12.88;10.65;;;31.00;94.30;;;;;;5095394;28;20123;-56
2022/05/18 06:53:52;;;;;;;12.48;11.18;;;30.90;94.30;;;;;;5096491;28;20451;-56
2022/05/18 06:56:19;;;;;;;13.20;11.82;;;30.20;93.70;;;;;;5097638;28;20476;-50
2022/05/18 06:59:04;;;;;;;13.50;12.18;;;30.10;94.90;;;;;;5086048;28;20131;-55
2022/05/18 07:01:30;;;;;;;13.23;11.13;;;30.20;94.00;;;;;;5103777;28;20105;-57
2022/05/18 07:03:57;;;;;;;13.57;12.27;;;30.10;94.10;;;;;;5097516;28;20507;-55
2022/05/18 07:06:26;;;;;;;13.80;12.40;;;29.90;94.10;;;;;;5103578;28;20092;-54
2022/05/18 07:08:55;;;;;;;12.35;10.65;;;30.40;94.30;;;;;;5084859;28;20124;-56
2022/05/18 07:11:25;;;;;;;13.18;11.68;;;30.40;94.30;;;;;;5100703;28;20066;-46
2022/05/18 07:13:52;;;;;;;13.27;11.23;;;29.90;94.00;;;;;;5104107;28;20494;-55
2022/05/18 07:16:26;;;;;;;17.55;11.52;;;29.20;94.00;;;;;;5104351;28;20573;-56
2022/05/18 07:18:57;;;;;;;15.10;11.23;;;28.50;94.20;;;;;;5104584;28;20047;-56
2022/05/18 07:21:25;;;;;;;13.05;11.75;;;28.30;94.90;;;;;;5104256;28;20185;-55
2022/05/18 07:23:52;;;;;;;12.10;10.30;;;28.50;95.40;;;;;;5103395;28;20500;-55
2022/05/18 07:26:19;;;;;;;13.70;10.93;;;28.40;95.60;;;;;;5084903;28;20599;-56
2022/05/18 07:28:48;;;;;;;12.73;11.43;;;28.90;95.40;;;;;;5102920;28;20063;-57
2022/05/18 07:31:15;;;;;;;11.60;10.40;;;28.80;94.90;;;;;;5098449;28;20102;-56
2022/05/18 07:33:41;;;;;;;14.50;11.35;;;28.50;94.60;;;;;;5103199;28;20040;-56
2022/05/18 07:36:07;;;;;;;13.30;11.85;;;28.40;94.70;;;;;;5084706;28;20141;-52
2022/05/18 07:38:34;;;;;;;12.77;11.52;;;28.50;94.50;;;;;;5090310;28;20083;-56
2022/05/18 07:41:01;;;;;;;14.07;11.80;;;28.40;94.30;;;;;;5064928;28;20056;-57
2022/05/18 07:43:27;;;;;;;14.75;12.13;;;28.30;94.80;;;;;;5082000;28;20102;-55
2022/05/18 07:45:54;;;;;;;14.43;12.00;;;28.20;95.00;;;;;;5087603;28;20278;-56
2022/05/18 07:48:21;;;;;;;16.60;11.95;;;28.30;95.00;;;;;;5085845;28;20444;-56
2022/05/18 07:50:48;;;;;;;16.65;12.52;;;28.30;94.90;;;;;;5103718;28;20600;-57
2022/05/18 07:53:29;;;;;;;15.48;13.07;;;28.30;95.00;;;;;;5085702;28;20079;-56
2022/05/18 07:55:55;;;;;;;16.57;14.80;;;28.40;94.80;;;;;;5104557;28;20051;-56
2022/05/18 07:58:22;;;;;;;15.55;13.88;;;27.80;94.90;;;;;;5106460;27;20190;-56
2022/05/18 08:00:48;;;;;;;16.52;14.73;;;27.80;95.00;;;;;;5083922;28;20387;-57
2022/05/18 08:03:15;;;;;;;16.20;14.38;;;27.90;95.20;;;;;;5102906;28;20035;-55
2022/05/18 08:05:43;;;;;;;15.85;14.20;;;27.90;95.30;;;;;;5095264;28;20246;-56
2022/05/18 08:08:13;;;;;;;16.83;14.20;;;27.90;95.50;;;;;;5092418;28;20146;-57
2022/05/18 08:16:17;;;;;;;18.02;14.45;;;27.60;95.90;;;;;;5098922;28;20052;-56
2022/05/18 08:18:44;;;;;;;18.08;14.82;;;27.60;95.80;;;;;;5101035;28;20050;-56
2022/05/18 08:21:09;;;;;;;15.15;13.55;;;27.70;95.50;;;;;;5096054;28;20509;-56
2022/05/18 08:23:35;;;;;;;14.90;13.50;;;27.90;96.00;;;;;;5102062;28;20541;-56
2022/05/18 08:26:03;;;;;;;15.18;13.63;;;27.80;95.60;;;;;;5098813;28;20048;-51
2022/05/18 08:28:29;;;;;;;23.63;14.98;;;27.90;95.90;;;;;;5072919;28;20630;-57
2022/05/18 08:30:55;;;;;;;17.20;14.57;;;27.90;95.90;;;;;;5097855;28;20126;-56
2022/05/18 08:33:22;;;;;;;16.23;14.50;;;28.00;96.10;;;;;;5086893;28;20108;-55
2022/05/18 08:35:48;;;;;;;17.63;14.98;;;28.10;95.70;;;;;;5101306;28;20054;-56
2022/05/18 08:38:15;;;;;;;17.85;14.98;;;28.20;95.90;;;;;;5081341;28;20047;-57
2022/05/18 08:41:12;;;;;;;15.52;13.93;;;28.00;95.80;;;;;;5097505;28;20130;-56
2022/05/18 08:43:41;;;;;;;16.35;13.63;;;28.20;95.80;;;;;;5078640;28;20058;-57
2022/05/18 08:46:18;;;;;;;15.75;14.23;;;28.20;95.50;;;;;;5100818;28;20142;-56
2022/05/18 08:49:06;;;;;;;18.10;14.95;;;28.30;95.30;;;;;;5082754;28;20671;-56
2022/05/18 08:51:52;;;;;;;18.23;15.82;;;28.20;95.60;;;;;;5083094;28;20116;-57
2022/05/18 08:54:27;;;;;;;18.85;14.63;;;28.30;95.60;;;;;;5077512;28;20048;-56
2022/05/18 08:56:58;;;;;;;16.88;15.27;;;28.30;96.10;;;;;;5098633;28;20472;-56
2022/05/18 08:59:32;;;;;;;16.67;13.90;;;28.40;96.00;;;;;;5095119;28;20036;-56
2022/05/18 09:02:02;;;;;;;17.75;14.20;;;28.30;95.80;;;;;;5083250;28;20050;-56
2022/05/18 09:04:51;;;;;;;15.23;13.35;;;28.10;96.00;;;;;;5077713;28;20545;-55
2022/05/18 09:07:22;;;;;;;15.52;13.77;;;28.10;95.80;;;;;;5092378;28;20174;-57
2022/05/18 09:10:12;;;;;;;14.65;13.10;;;28.10;96.00;;;;;;5096570;28;20111;-57
2022/05/18 09:12:42;;;;;;;16.60;14.88;;;28.10;96.10;;;;;;5093021;28;20104;-56
2022/05/18 09:15:12;;;;;;;15.90;14.38;;;28.30;96.10;;;;;;5082243;28;20452;-57
2022/05/18 09:17:59;;;;;;;13.50;12.13;;;28.30;96.40;;;;;;5099543;28;20502;-56
2022/05/18 09:20:34;;;;;;;17.75;16.15;;;28.40;96.20;;;;;;5081427;28;20056;-56
2022/05/18 09:23:03;;;;;;;23.33;17.42;;;28.10;96.10;;;;;;5082570;28;20419;-56
2022/05/18 09:26:07;;;;;;;18.67;16.92;;;28.10;96.40;;;;;;5080000;28;20306;-56
2022/05/18 09:28:35;;;;;;;21.92;17.98;;;28.10;96.40;;;;;;5096808;28;20043;-57
2022/05/18 09:31:25;;;;;;;16.58;15.02;;;28.00;96.50;;;;;;5092758;28;20211;-46
2022/05/18 09:34:06;;;;;;;15.98;13.63;;;28.10;96.60;;;;;;5088540;28;20446;-57
2022/05/18 09:36:46;;;;;;;16.55;13.50;;;28.40;96.70;;;;;;5064882;28;20045;-57
2022/05/18 09:39:17;;;;;;;15.38;13.55;;;28.50;96.50;;;;;;5023656;28;20099;-57
2022/05/18 09:42:02;;;;;;;17.67;14.18;;;28.50;96.20;;;;;;5052317;28;20088;-60
2022/05/18 09:44:46;;;;;;;20.63;16.70;;;28.50;96.60;;;;;;5058961;28;20052;-56
2022/05/18 09:47:16;;;;;;;18.65;16.27;;;28.60;96.00;;;;;;5040093;28;20578;-56
2022/05/18 09:49:46;;;;;;;17.45;15.82;;;28.40;96.10;;;;;;5040187;28;20044;-55
2022/05/18 09:52:13;;;;;;;17.63;15.73;;;28.50;96.10;;;;;;5028225;28;20067;-57
2022/05/18 09:54:39;;;;;;;18.98;16.13;;;28.20;96.00;;;;;;5043529;28;20068;-51
2022/05/18 09:57:13;;;;;;;19.45;17.48;;;28.20;96.10;;;;;;5058195;28;20036;-57
2022/05/18 09:59:51;;;;;;;20.17;17.55;;;27.90;96.50;;;;;;5041502;28;20060;-57
2022/05/18 10:08:01;;;;;;;18.58;16.02;;;28.10;96.30;;;;;;5060730;28;20135;-57
2022/05/18 10:10:27;;;;;;;18.75;16.85;;;28.10;97.00;;;;;;5052452;28;20094;-52
2022/05/18 10:12:58;;;;;;;20.88;18.88;;;28.20;96.40;;;;;;5040897;28;20084;-57
2022/05/18 10:15:45;;;;;;;21.42;18.95;;;28.00;95.80;;;;;;5041045;28;20053;-58
2022/05/18 10:18:36;;;;;;;17.13;15.38;;;27.80;96.40;;;;;;5055573;28;20036;-59
2022/05/18 10:21:20;;;;;;;18.30;16.08;;;28.00;96.90;;;;;;5047463;28;20608;-53
2022/05/18 10:23:51;;;;;;;19.00;17.00;;;28.00;96.60;;;;;;5041116;28;20063;-58
2022/05/18 10:26:31;;;;;;;17.90;15.30;;;27.90;96.70;;;;;;5024491;28;20143;-56
2022/05/18 10:29:28;;;;;;;18.20;16.45;;;28.00;97.00;;;;;;5049459;28;20084;-54
2022/05/18 10:32:27;;;;;;;16.92;15.38;;;27.90;97.40;;;;;;5042766;28;20053;-53
2022/05/18 10:35:47;;;;;;;17.50;15.60;;;28.00;97.00;;;;;;4986618;28;20089;-57
2022/05/18 10:38:50;;;;;;;19.25;17.58;;;28.10;96.70;;;;;;4993715;28;20065;-55
2022/05/18 10:41:20;;;;;;;18.77;15.57;;;28.00;95.80;;;;;;4906176;29;20060;-57
2022/05/18 10:43:55;;;;;;;18.80;16.90;;;27.90;97.20;;;;;;4904783;29;20304;-57
2022/05/18 10:46:39;;;;;;;18.55;16.80;;;28.00;97.40;;;;;;4905223;29;20056;-55
2022/05/18 10:49:10;;;;;;;18.75;16.95;;;28.10;96.60;;;;;;4904696;29;20138;-57
2022/05/18 10:51:38;;;;;;;18.83;12.93;;;28.00;96.70;;;;;;4905125;29;20172;-54
2022/05/18 10:54:11;;;;;;;15.20;13.63;;;28.00;97.30;;;;;;4905029;29;20108;-56
2022/05/18 10:56:37;;;;;;;15.63;13.38;;;28.00;97.10;;;;;;4914864;29;20135;-56
2022/05/18 10:59:31;;;;;;;18.35;16.35;;;28.00;97.60;;;;;;4921360;29;20135;-56
2022/05/18 11:02:30;;;;;;;15.13;13.57;;;28.00;97.10;;;;;;4906360;29;20052;-57
2022/05/18 11:05:11;;;;;;;18.08;14.77;;;28.30;97.70;;;;;;4907051;29;20060;-56
2022/05/18 11:07:37;;;;;;;17.73;15.48;;;28.50;97.70;;;;;;4921114;29;20055;-56
2022/05/18 11:10:03;;;;;;;18.83;16.92;;;28.50;97.30;;;;;;4913464;29;20929;-58
2022/05/18 11:12:51;;;;;;;18.63;16.73;;;28.30;96.90;;;;;;4949968;28;20059;-59
2022/05/18 11:15:43;;;;;;;19.77;17.67;;;28.40;97.50;;;;;;4941880;29;20130;-58
2022/05/18 11:18:24;;;;;;;19.40;17.38;;;28.30;97.00;;;;;;5023451;28;20300;-56
2022/05/18 11:21:28;;;;;;;19.25;16.98;;;28.30;97.00;;;;;;5013915;28;20053;-56
2022/05/18 11:24:03;;;;;;;18.90;16.33;;;28.30;97.60;;;;;;5004613;28;20045;-57
2022/05/18 11:26:57;;;;;;;20.92;17.00;;;28.40;97.50;;;;;;5005163;28;20463;-57
2022/05/18 11:29:43;;;;;;;22.02;18.65;;;28.50;97.80;;;;;;5009211;28;20499;-55
2022/05/18 11:32:32;;;;;;;23.50;20.65;;;28.70;97.30;;;;;;5003117;28;20054;-56
2022/05/18 11:35:27;;;;;;;22.63;19.60;;;28.80;97.00;;;;;;5020703;28;20128;-53
2022/05/18 11:38:14;;;;;;;21.52;19.52;;;28.90;96.70;;;;;;5031534;28;20576;-61
2022/05/18 11:41:02;;;;;;;22.83;20.80;;;28.70;96.80;;;;;;5037279;28;20480;-56
2022/05/18 11:43:46;;;;;;;24.40;21.75;;;28.50;97.30;;;;;;5041300;28;20492;-50
2022/05/18 11:46:40;;;;;;;24.00;20.83;;;28.60;96.90;;;;;;5035054;28;20502;-56
2022/05/18 11:49:23;;;;;;;52.60;20.90;;;28.50;97.40;;;;;;5034867;28;20057;-57
2022/05/18 11:52:12;;;;;;;24.77;22.23;;;28.60;97.40;;;;;;5024804;28;20455;-56
2022/05/18 11:54:57;;;;;;;25.30;22.17;;;28.30;96.70;;;;;;5033751;28;20139;-57
2022/05/18 11:57:41;;;;;;;25.40;20.08;;;28.10;96.50;;;;;;5040998;28;20064;-56
2022/05/18 12:00:46;;;;;;;25.20;22.67;;;28.10;97.30;;;;;;5042205;28;20119;-55
2022/05/18 12:03:34;;;;;;;24.85;22.35;;;28.00;97.80;;;;;;5041762;28;20577;-56
2022/05/18 12:06:05;;;;;;;26.42;21.83;;;28.10;97.70;;;;;;5042046;28;20558;-57
2022/05/18 12:08:55;;;;;;;25.17;21.48;;;28.20;97.50;;;;;;5042470;28;20084;-56
2022/05/18 12:11:27;;;;;;;24.70;22.02;;;28.40;97.20;;;;;;5024198;28;20049;-56
2022/05/18 12:14:23;;;;;;;20.73;18.33;;;28.30;96.70;;;;;;5022339;28;20043;-50
2022/05/18 12:17:05;;;;;;;27.55;17.35;;;28.30;96.60;;;;;;5020430;28;20512;-56
2022/05/18 12:19:58;;;;;;;21.17;17.23;;;28.10;96.70;;;;;;5021105;28;20068;-57
2022/05/18 12:22:36;;;;;;;19.05;16.75;;;27.70;96.30;;;;;;5021746;28;20045;-57
2022/05/18 12:25:05;;;;;;;19.83;16.38;;;27.80;97.40;;;;;;5022311;28;20050;-56
2022/05/18 12:27:31;;;;;;;19.48;15.02;;;27.60;96.40;;;;;;5022941;28;20147;-55
2022/05/18 12:30:00;;;;;;;18.00;15.85;;;27.40;96.90;;;;;;5030574;28;20041;-56
2022/05/18 12:32:26;;;;;;;20.77;16.27;;;27.40;96.60;;;;;;5024594;28;20045;-53
2022/05/18 12:35:06;;;;;;;18.75;15.50;;;27.30;97.00;;;;;;5036871;28;20053;-56
2022/05/18 12:37:52;;;;;;;22.83;16.80;;;27.30;96.50;;;;;;5062989;28;20056;-57
2022/05/18 12:40:23;;;;;;;19.13;16.65;;;27.30;96.80;;;;;;5063624;28;20449;-56
2022/05/18 12:42:57;;;;;;;22.37;17.87;;;27.30;97.20;;;;;;5045565;28;20044;-54
2022/05/18 12:45:25;;;;;;;23.63;21.10;;;27.40;97.30;;;;;;5043113;28;20052;-56
2022/05/18 12:48:05;;;;;;;23.83;21.02;;;27.20;97.00;;;;;;5042014;28;20507;-56
2022/05/18 12:50:39;;;;;;;25.10;22.45;;;27.20;97.00;;;;;;5041282;28;20048;-55
2022/05/18 12:53:21;;;;;;;27.27;22.10;;;27.20;97.90;;;;;;5054635;28;20135;-56
2022/05/18 12:56:08;;;;;;;25.73;19.60;;;27.30;98.30;;;;;;5021846;28;20076;-56
2022/05/18 12:58:43;;;;;;;23.60;21.10;;;27.40;97.30;;;;;;5060616;28;20057;-57
2022/05/18 13:01:18;;;;;;;53.35;23.55;;;27.30;97.40;;;;;;5042388;28;20127;-55
2022/05/18 13:03:54;;;;;;;26.52;22.83;;;27.40;97.30;;;;;;5061411;28;20056;-56
2022/05/18 13:06:35;;;;;;;27.80;24.98;;;27.10;97.20;;;;;;5043016;28;20056;-56
2022/05/18 13:09:33;;;;;;;27.98;24.92;;;26.80;97.10;;;;;;5060359;28;20170;-56
2022/05/18 13:12:21;;;;;;;28.02;25.10;;;26.50;97.50;;;;;;5031907;28;20518;-56
2022/05/18 13:15:18;;;;;;;29.73;25.55;;;26.40;98.00;;;;;;5040502;28;20154;-57